Oaxaca, Mexico

7:44 AM CST on December 26, 2014 (GMT -0600)
Xoxocotlan International | Change Station
CLOSE
Current Station
Airport
Location: Oaxaca,
Elevation: 5013 ft
Nearby Weather Stations

Elev 5013 ft 16.97 °N, 96.73 °W | Updated 1 hour ago

Scattered Clouds
Scattered Clouds
46 °F
Feels Like 42 °F
N
9
Wind Variable Wind from North

Today
High -- | Low -- °F
--% Chance of Precip.
Yesterday
High -- | Low -- °F
Precip. -- in
6:53 AM 6:01 PM
Waxing Crescent, 26% visible
Pressure 30.24 in
Visibility 7.0 miles
Clouds Scattered Clouds 22000 ft
Windchill 42 °F
Dew Point 45 °F
Humidity 93%
Rainfall 0.00 in
Snow Depth Not available.
UV 0 out of 12
Pollen Not available.
Air Quality Not available.
Flu Activity Not available.
METAR MMOX 261242Z 36008KT 7SM SCT220 08/07 A3024 RMK 8/002 HZY

More Conditions Fewer Conditions

Pressure 30.24 in
Visibility 7.0 miles
Clouds Scattered Clouds 22000 ft
Windchill 42 °F
Dew Point 45 °F
Humidity 93%
Rainfall 0.00 in
Snow Depth Not available.
UV 0 out of 12
Pollen Not available.
Air Quality Not available.
Flu Activity Not available.
METAR MMOX 261242Z 36008KT 7SM SCT220 08/07 A3024 RMK 8/002 HZY

More Conditions Fewer Conditions

10-Day Weather Forecast

Almanac

Astronomy

Dec. 26, 2014 Rise Set
Actual Time
Civil Twilight
Nautical Twilight
Astronomical Twilight
Moon
Length of Visible Light
Length of Day
Tomorrow will be .
, % of the Moon is Illuminated

Today's Extremes

Country Highs Country Lows

Community

WunderPhotos

Upload Photos

1,780,593 photos uploaded!

WunderBlogs® & News

Nearby

Air Quality

  Air Quality AQ Index Pollutant
Not available.

Snow Depth

Station Depth Elevation

Earthquake Activity

City Distance Mag. Time & Date
Minimum magnitude displayed is 2.5.

Coastal Water Temperatures

Place Temperature

Nearby Weather Stations